Indianapolis, Indiana
Current Conditions -  °F | °C
As of 12:54 AM on Thursday 29 Jan 2015 (Local Time) from KIND Reporting Station
Overcast Overcast  
Wind Chill: 23°   Ceiling: 20000
Heat Index: 32°   Visibility: 10mi
Dew Point: 18°   Wind: 12mph
Humidity: 56%   Direction: 150°SSE
Pressure: 29.99"   Gusts: NA
Location:  39.77°N, 86.15°W
Report Text: KIND 290554Z 15010KT 10SM OVC200 00/M08 A2999 RMK AO2 SLP161 T00001078 10000 21011 57022
Loading
Personal Weather Stations






























Interactive Weather Map New forecast layout! Learn more

10-Day Weather Forecast

Advertisements
Track Severe Weather on mobile